Terminal Aerodrome Forecast
Issued by NWS

Home | Current Version | Previous Version | Text Only | Print | Product List | Glossary On
Versions: 1 2 3 4 5 6 7 8 9 10 11 12 13 14 15 16
000
FTUS45 KABQ 141100
TAFTCC
TAF
KTCC 141138Z 1412/1512 30007KT P6SM BKN100
     FM141800 23008KT P6SM VCSH BKN090
      TEMPO 1421/1424 5SM -TSRA BKN050CB
     FM150400 06012KT P6SM VCSH OVC060
     FM150900 07008KT P6SM SCT025 BKN060=

USA.gov is the U.S. government's official web portal to all federal, state and local government web resources and services.